Time;durP1;ratioP1;P1;durP2;ratioP2;P2;SDS_P1;SDS_P2;PMS_P1;PMS_P2;Temp;Humidity;BMP_temperature;BMP_pressure;BME280_temperature;BME280_humidity;BME280_pressure;Samples;Min_cycle;Max_cycle;Signal;HPM_P1;HPM_P2
2022/11/08 00:02:35;;;;;;;12.75;4.70;;;13.70;99.90;;;;;;4949967;28;20062;-69
2022/11/08 00:16:00;;;;;;;9.57;3.53;;;13.60;99.90;;;;;;4941541;29;20147;-69
2022/11/08 00:18:25;;;;;;;11.23;4.65;;;13.60;99.90;;;;;;4932730;29;20119;-69
2022/11/08 00:20:51;;;;;;;11.27;4.28;;;13.50;99.90;;;;;;4933939;29;20853;-69
2022/11/08 00:23:16;;;;;;;10.75;3.70;;;13.50;99.90;;;;;;4944207;29;20046;-69
2022/11/08 00:25:42;;;;;;;13.85;3.75;;;13.40;99.90;;;;;;4942355;28;20675;-69
2022/11/08 00:28:07;;;;;;;10.18;3.42;;;13.30;99.90;;;;;;4930654;29;20039;-69
2022/11/08 00:30:33;;;;;;;9.02;3.22;;;13.20;99.90;;;;;;4943993;29;20127;-69
2022/11/08 00:32:59;;;;;;;10.85;3.60;;;13.20;99.90;;;;;;4944414;29;20497;-69
2022/11/08 00:35:24;;;;;;;10.02;4.10;;;13.10;99.90;;;;;;4952830;29;20047;-67
2022/11/08 00:37:50;;;;;;;12.38;3.92;;;13.00;99.90;;;;;;4939363;29;20482;-68
2022/11/08 00:40:16;;;;;;;11.18;4.00;;;13.00;99.90;;;;;;4944258;29;20039;-69
2022/11/08 00:42:42;;;;;;;12.30;4.10;;;13.00;99.90;;;;;;4949284;29;20050;-69
2022/11/08 00:45:07;;;;;;;15.50;4.10;;;12.90;99.90;;;;;;4957721;29;20043;-68
2022/11/08 00:47:33;;;;;;;12.25;3.53;;;12.90;99.90;;;;;;4944441;29;20074;-69
2022/11/08 00:49:59;;;;;;;15.52;3.83;;;12.80;99.90;;;;;;4950376;28;20047;-69
2022/11/08 00:52:24;;;;;;;9.13;3.85;;;12.80;99.90;;;;;;4952986;29;20386;-68
2022/11/08 00:54:50;;;;;;;9.80;3.50;;;12.80;99.90;;;;;;4953212;29;20040;-69
2022/11/08 00:57:15;;;;;;;12.02;3.67;;;12.70;99.90;;;;;;4948083;29;20063;-69
2022/11/08 00:59:41;;;;;;;15.80;4.43;;;12.70;99.90;;;;;;4955941;29;20039;-69
2022/11/08 01:02:06;;;;;;;14.27;4.00;;;12.70;99.90;;;;;;4942534;29;20134;-68
2022/11/08 01:04:32;;;;;;;13.05;3.88;;;12.60;99.90;;;;;;4945293;29;20031;-68
2022/11/08 01:06:57;;;;;;;16.02;4.10;;;12.60;99.90;;;;;;4947777;29;20122;-69
2022/11/08 01:09:23;;;;;;;10.40;3.90;;;12.50;99.90;;;;;;4956295;29;20031;-69
2022/11/08 01:11:49;;;;;;;12.23;3.67;;;12.50;99.90;;;;;;4951765;29;20039;-67
2022/11/08 01:14:14;;;;;;;12.07;3.78;;;12.50;99.90;;;;;;4946337;29;20067;-68
2022/11/08 01:16:40;;;;;;;14.30;4.03;;;12.40;99.90;;;;;;4954937;29;20047;-69
2022/11/08 01:19:06;;;;;;;13.60;4.43;;;12.40;99.90;;;;;;4957500;28;20047;-69
2022/11/08 01:21:32;;;;;;;10.15;3.75;;;12.30;99.90;;;;;;4948141;28;20047;-69
2022/11/08 01:23:57;;;;;;;11.77;3.97;;;12.30;99.90;;;;;;4952433;28;20038;-69
2022/11/08 01:26:27;;;;;;;11.98;4.25;;;12.30;99.90;;;;;;4939970;29;20051;-67
2022/11/08 01:28:54;;;;;;;12.20;4.13;;;12.30;99.90;;;;;;4925105;29;20055;-68
2022/11/08 01:31:22;;;;;;;11.52;4.20;;;12.30;99.90;;;;;;4946352;29;20402;-69
2022/11/08 01:33:48;;;;;;;14.88;4.00;;;12.30;99.90;;;;;;4947778;29;20058;-69
2022/11/08 01:36:18;;;;;;;10.80;3.88;;;12.30;99.90;;;;;;4945548;29;20399;-68
2022/11/08 01:38:44;;;;;;;13.10;4.15;;;12.20;99.90;;;;;;4949638;29;20120;-68
2022/11/08 01:41:14;;;;;;;10.50;3.75;;;12.30;99.90;;;;;;4953208;29;20074;-68
2022/11/08 01:43:48;;;;;;;12.25;4.22;;;12.30;99.90;;;;;;4950339;28;20035;-68
2022/11/08 01:46:35;;;;;;;11.68;3.92;;;12.30;99.90;;;;;;4951139;29;20043;-68
2022/11/08 01:49:13;;;;;;;12.23;4.22;;;12.30;99.90;;;;;;4937558;29;20055;-68
2022/11/08 01:51:54;;;;;;;11.50;3.83;;;12.30;99.90;;;;;;4937939;29;20054;-69
2022/11/08 01:54:41;;;;;;;8.07;3.72;;;12.40;99.90;;;;;;4935226;29;20082;-68
2022/11/08 01:57:11;;;;;;;10.55;4.05;;;12.40;99.90;;;;;;4945700;29;20036;-69
2022/11/08 01:59:40;;;;;;;9.13;3.95;;;12.40;99.90;;;;;;4945539;29;20035;-69
2022/11/08 02:02:08;;;;;;;13.25;4.85;;;12.40;99.90;;;;;;4941955;29;20074;-68
2022/11/08 02:04:34;;;;;;;9.65;3.67;;;12.40;99.90;;;;;;4947113;29;20071;-68
2022/11/08 02:07:01;;;;;;;11.43;4.05;;;12.40;99.90;;;;;;4936737;29;20056;-68
2022/11/08 02:09:27;;;;;;;11.43;4.03;;;12.40;99.90;;;;;;4936181;29;20048;-66
2022/11/08 02:11:52;;;;;;;11.98;4.28;;;12.40;99.90;;;;;;4938588;28;20043;-69
2022/11/08 02:14:18;;;;;;;16.10;3.95;;;12.30;99.90;;;;;;4945769;29;20039;-68
2022/11/08 02:16:44;;;;;;;15.07;4.50;;;12.30;99.90;;;;;;4950956;29;20043;-69
2022/11/08 02:19:18;;;;;;;11.65;3.60;;;12.20;99.90;;;;;;4939398;29;20247;-69
2022/11/08 02:21:53;;;;;;;16.48;3.83;;;12.20;99.90;;;;;;4948771;29;20047;-69
2022/11/08 02:24:19;;;;;;;10.65;4.30;;;12.20;99.90;;;;;;4943649;29;20047;-69
2022/11/08 02:26:46;;;;;;;13.93;4.10;;;12.20;99.90;;;;;;4948038;29;20050;-69
2022/11/08 02:29:30;;;;;;;9.82;3.65;;;12.10;99.90;;;;;;4953808;29;20086;-69
2022/11/08 02:31:57;;;;;;;11.95;3.80;;;12.00;99.90;;;;;;4950270;29;20048;-66
2022/11/08 02:34:33;;;;;;;11.18;4.13;;;12.00;99.90;;;;;;4952576;29;20050;-68
2022/11/08 02:37:01;;;;;;;12.23;3.97;;;12.00;99.90;;;;;;4946473;29;20059;-70
2022/11/08 02:39:27;;;;;;;11.20;4.18;;;11.90;99.90;;;;;;4946509;29;20035;-69
2022/11/08 02:41:54;;;;;;;10.13;3.80;;;11.90;99.90;;;;;;4935326;29;20053;-66
2022/11/08 02:44:19;;;;;;;9.68;4.07;;;11.80;99.90;;;;;;4944060;29;20042;-69
2022/11/08 02:46:45;;;;;;;13.30;4.57;;;11.80;99.90;;;;;;4948186;29;20126;-69
2022/11/08 02:49:11;;;;;;;9.20;4.30;;;11.80;99.90;;;;;;4956199;29;20043;-69
2022/11/08 02:51:36;;;;;;;11.63;4.47;;;11.80;99.90;;;;;;4942735;29;20043;-69
2022/11/08 02:54:02;;;;;;;8.98;3.97;;;11.70;99.90;;;;;;4945689;29;20468;-69
2022/11/08 02:56:28;;;;;;;13.27;4.82;;;11.70;99.90;;;;;;4952644;29;20515;-69
2022/11/08 02:58:53;;;;;;;12.45;3.90;;;11.70;99.90;;;;;;4948210;29;20070;-69
2022/11/08 03:01:19;;;;;;;11.02;4.55;;;11.60;99.90;;;;;;4942551;29;20078;-69
2022/11/08 03:03:44;;;;;;;12.70;4.43;;;11.70;99.90;;;;;;4945727;29;20302;-70
2022/11/08 03:06:10;;;;;;;12.73;4.13;;;11.60;99.90;;;;;;4955220;29;20094;-69
2022/11/08 03:08:36;;;;;;;8.60;4.03;;;11.60;99.90;;;;;;4935059;29;20039;-69
2022/11/08 03:11:01;;;;;;;10.65;4.32;;;11.60;99.90;;;;;;4942395;29;20044;-69
2022/11/08 03:13:27;;;;;;;10.55;3.95;;;11.60;99.90;;;;;;4953427;29;20050;-70
2022/11/08 03:15:52;;;;;;;9.77;4.22;;;11.60;99.90;;;;;;4948220;29;20032;-69
2022/11/08 03:18:18;;;;;;;13.75;4.00;;;11.50;99.90;;;;;;4951875;28;20062;-69
2022/11/08 03:20:43;;;;;;;14.02;4.47;;;11.50;99.90;;;;;;4948193;29;20039;-69
2022/11/08 03:23:09;;;;;;;15.00;3.83;;;11.50;99.90;;;;;;4953824;28;20051;-67
2022/11/08 03:25:35;;;;;;;7.15;4.10;;;11.40;99.90;;;;;;4943362;29;20402;-70
2022/11/08 03:28:02;;;;;;;10.30;3.88;;;11.50;99.90;;;;;;4946265;29;20510;-69
2022/11/08 03:30:27;;;;;;;10.05;3.67;;;11.40;99.90;;;;;;4949131;29;20055;-69
2022/11/08 03:32:53;;;;;;;13.63;4.20;;;11.40;99.90;;;;;;4938304;29;20046;-69
2022/11/08 03:35:18;;;;;;;12.77;4.30;;;11.40;99.90;;;;;;4948269;28;20036;-69
2022/11/08 03:37:55;;;;;;;11.63;4.32;;;11.40;99.90;;;;;;4955380;29;20035;-69
2022/11/08 03:40:21;;;;;;;10.57;3.90;;;11.40;99.90;;;;;;4951186;28;20118;-68
2022/11/08 03:42:47;;;;;;;12.38;3.92;;;11.40;99.90;;;;;;4944366;29;20054;-69
2022/11/08 03:45:14;;;;;;;11.50;3.72;;;11.40;99.90;;;;;;4946683;28;20058;-69
2022/11/08 03:47:44;;;;;;;9.48;3.88;;;11.40;99.90;;;;;;4943172;28;20085;-69
2022/11/08 03:50:11;;;;;;;11.50;3.80;;;11.40;99.90;;;;;;4943802;29;20043;-69
2022/11/08 03:52:48;;;;;;;10.65;4.38;;;11.40;99.90;;;;;;4946026;29;20549;-69
2022/11/08 03:55:15;;;;;;;13.82;4.00;;;11.40;99.90;;;;;;4953256;29;20052;-69
2022/11/08 03:57:41;;;;;;;10.93;3.90;;;11.40;99.90;;;;;;4935875;29;20043;-69
2022/11/08 04:00:09;;;;;;;10.95;4.25;;;11.40;99.90;;;;;;4955373;28;20035;-69
2022/11/08 04:02:35;;;;;;;7.57;4.05;;;11.40;99.90;;;;;;4943493;29;20044;-69
2022/11/08 04:05:01;;;;;;;12.18;4.28;;;11.40;99.90;;;;;;4936469;29;20054;-69
2022/11/08 04:07:27;;;;;;;9.70;3.97;;;11.40;99.90;;;;;;4941262;29;20114;-69
2022/11/08 04:09:54;;;;;;;10.98;3.90;;;11.40;99.90;;;;;;4947662;28;20498;-69
2022/11/08 04:15:14;;;;;;;11.10;3.75;;;11.50;99.90;;;;;;4948443;28;20042;-69
2022/11/08 04:23:09;;;;;;;7.57;3.72;;;11.40;99.90;;;;;;4954999;28;20696;-69
2022/11/08 04:25:34;;;;;;;10.93;3.80;;;11.40;99.90;;;;;;4949860;29;20066;-69
2022/11/08 04:28:00;;;;;;;9.65;3.40;;;11.40;99.90;;;;;;4950270;29;20039;-69
2022/11/08 04:30:25;;;;;;;9.32;4.00;;;11.30;99.90;;;;;;4954192;29;20121;-69
2022/11/08 04:32:51;;;;;;;7.95;3.55;;;11.30;99.90;;;;;;4947957;29;20102;-69
2022/11/08 04:35:16;;;;;;;9.73;4.18;;;11.30;99.90;;;;;;4950701;29;20402;-69
2022/11/08 04:37:42;;;;;;;9.23;4.25;;;11.20;99.90;;;;;;4947976;29;20099;-69
2022/11/08 04:40:08;;;;;;;6.47;3.72;;;11.20;99.90;;;;;;4948716;29;20028;-68
2022/11/08 04:42:34;;;;;;;12.70;4.15;;;11.20;99.90;;;;;;4953121;29;20035;-67
2022/11/08 04:45:00;;;;;;;12.27;3.97;;;11.10;99.90;;;;;;4950746;29;20120;-69
2022/11/08 04:47:27;;;;;;;7.13;3.80;;;11.10;99.90;;;;;;4942554;28;20039;-68
2022/11/08 04:49:53;;;;;;;9.93;3.90;;;11.20;99.90;;;;;;4945931;29;20042;-68
2022/11/08 04:52:19;;;;;;;9.95;3.80;;;11.10;99.90;;;;;;4944857;29;20044;-68
2022/11/08 04:54:46;;;;;;;10.27;3.67;;;11.10;99.90;;;;;;4948130;29;20035;-69
2022/11/08 04:57:11;;;;;;;12.52;4.10;;;11.20;99.90;;;;;;4951270;29;20039;-69
2022/11/08 04:59:38;;;;;;;10.18;3.90;;;11.20;99.90;;;;;;4960860;29;20043;-69
2022/11/08 05:02:04;;;;;;;6.95;3.40;;;11.20;99.90;;;;;;4954493;29;20084;-68
2022/11/08 05:04:30;;;;;;;12.93;3.80;;;11.10;99.90;;;;;;4938724;29;20573;-69
2022/11/08 05:06:55;;;;;;;7.80;3.55;;;11.10;99.90;;;;;;4954237;29;20043;-69
2022/11/08 05:09:21;;;;;;;8.27;3.95;;;11.10;99.90;;;;;;4977958;23;20047;-75
2022/11/08 05:11:47;;;;;;;13.90;3.63;;;11.10;99.90;;;;;;4950372;29;20035;-74
2022/11/08 05:14:12;;;;;;;9.18;3.90;;;11.10;99.90;;;;;;4948189;29;20094;-73
2022/11/08 05:16:38;;;;;;;8.00;3.63;;;11.10;99.90;;;;;;4947467;29;20050;-74
2022/11/08 05:19:04;;;;;;;10.10;3.83;;;11.10;99.90;;;;;;4953842;29;20434;-74
2022/11/08 05:24:16;;;;;;;10.55;4.13;;;11.00;99.90;;;;;;4929768;29;20071;-74
2022/11/08 05:26:44;;;;;;;10.32;3.70;;;11.00;99.90;;;;;;4935232;29;20047;-75
2022/11/08 05:29:11;;;;;;;8.57;3.60;;;11.00;99.90;;;;;;4930213;29;20706;-74
2022/11/08 05:31:37;;;;;;;9.40;3.85;;;11.00;99.90;;;;;;4927019;29;20050;-73
2022/11/08 05:34:03;;;;;;;10.95;3.80;;;11.00;99.90;;;;;;4935233;29;20110;-73
2022/11/08 05:36:29;;;;;;;13.38;4.30;;;11.00;99.90;;;;;;4932110;29;20044;-74
2022/11/08 05:38:55;;;;;;;8.82;3.78;;;11.00;99.90;;;;;;4925049;29;20044;-74
2022/11/08 05:41:22;;;;;;;9.48;3.95;;;10.90;99.90;;;;;;4930893;29;20118;-74
2022/11/08 05:43:51;;;;;;;9.85;4.18;;;11.00;99.90;;;;;;4934698;29;20110;-75
2022/11/08 05:46:18;;;;;;;8.07;3.60;;;11.00;99.90;;;;;;4921846;29;20043;-75
2022/11/08 05:48:45;;;;;;;9.43;4.00;;;11.00;99.90;;;;;;4933840;29;20047;-75
2022/11/08 05:51:12;;;;;;;13.15;4.22;;;11.00;99.90;;;;;;4932013;29;20059;-74
2022/11/08 05:53:38;;;;;;;9.95;4.28;;;11.00;99.90;;;;;;4927253;29;20481;-75
2022/11/08 05:56:04;;;;;;;10.15;4.28;;;11.00;99.90;;;;;;4930911;29;20127;-75
2022/11/08 05:58:32;;;;;;;14.75;4.50;;;11.00;99.90;;;;;;4928945;29;20042;-74
2022/11/08 06:01:03;;;;;;;7.72;4.28;;;11.00;99.90;;;;;;4913692;29;20051;-74
2022/11/08 06:03:29;;;;;;;11.93;6.05;;;11.10;99.90;;;;;;4926248;29;20126;-75
2022/11/08 06:05:55;;;;;;;13.73;4.45;;;11.20;99.90;;;;;;4923778;29;20123;-76
2022/11/08 06:08:21;;;;;;;11.00;4.65;;;11.20;99.90;;;;;;4929722;29;20067;-76
2022/11/08 06:10:46;;;;;;;9.93;4.90;;;11.20;99.90;;;;;;4920795;29;20393;-75
2022/11/08 06:13:12;;;;;;;10.80;4.63;;;11.20;99.90;;;;;;4927125;29;20066;-75
2022/11/08 06:15:38;;;;;;;10.95;4.38;;;11.20;99.90;;;;;;4934541;29;20504;-76
2022/11/08 06:18:04;;;;;;;11.27;4.43;;;11.20;99.90;;;;;;4935582;29;20122;-75
2022/11/08 06:20:30;;;;;;;10.10;4.38;;;11.20;99.90;;;;;;4929426;29;20040;-73
2022/11/08 06:22:55;;;;;;;11.23;4.53;;;11.30;99.90;;;;;;4922417;29;20103;-73
2022/11/08 06:25:21;;;;;;;11.20;3.83;;;11.30;99.90;;;;;;4924383;29;20812;-74
2022/11/08 06:27:47;;;;;;;10.50;4.60;;;11.30;99.90;;;;;;4921195;29;20464;-73
2022/11/08 06:30:13;;;;;;;9.18;3.90;;;11.30;99.90;;;;;;4927939;29;20066;-73
2022/11/08 06:32:39;;;;;;;9.07;4.13;;;11.20;99.90;;;;;;4919400;29;20044;-72
2022/11/08 06:35:05;;;;;;;10.45;3.83;;;11.20;99.90;;;;;;4927472;29;20051;-73
2022/11/08 06:37:30;;;;;;;9.30;3.97;;;11.20;99.90;;;;;;4925612;29;20049;-73
2022/11/08 06:39:57;;;;;;;10.27;4.35;;;11.20;99.90;;;;;;4921727;29;20383;-73
2022/11/08 06:42:23;;;;;;;9.77;4.05;;;11.20;99.90;;;;;;4928667;29;20467;-74
2022/11/08 06:44:49;;;;;;;10.63;4.40;;;11.20;99.90;;;;;;4926264;29;20036;-73
2022/11/08 06:47:14;;;;;;;12.38;4.10;;;11.20;99.90;;;;;;4931503;29;20122;-73
2022/11/08 06:49:40;;;;;;;9.88;3.63;;;11.20;99.90;;;;;;4918105;29;20051;-73
2022/11/08 06:52:06;;;;;;;10.18;4.10;;;11.20;99.90;;;;;;4929219;29;20075;-73
2022/11/08 06:54:31;;;;;;;10.80;4.22;;;11.30;99.90;;;;;;4931856;29;20047;-72
2022/11/08 06:56:59;;;;;;;8.45;3.90;;;11.30;99.90;;;;;;4935131;29;20035;-73
2022/11/08 06:59:26;;;;;;;7.05;3.85;;;11.40;99.90;;;;;;4933553;29;20044;-73
2022/11/08 07:01:52;;;;;;;9.18;4.10;;;11.40;99.90;;;;;;4922636;29;20044;-73
2022/11/08 07:04:17;;;;;;;8.55;3.90;;;11.50;99.90;;;;;;4930174;29;20122;-74
2022/11/08 07:06:43;;;;;;;7.00;3.53;;;11.50;99.90;;;;;;4934507;29;20047;-73
2022/11/08 07:09:09;;;;;;;8.68;3.92;;;11.50;99.90;;;;;;4933236;29;20054;-72
2022/11/08 07:11:34;;;;;;;9.20;3.70;;;11.50;99.90;;;;;;4927640;29;20043;-73
2022/11/08 07:14:00;;;;;;;9.75;3.63;;;11.50;99.90;;;;;;4923943;29;20040;-73
2022/11/08 07:16:26;;;;;;;6.78;3.90;;;11.60;99.90;;;;;;4932274;29;20432;-73
2022/11/08 07:18:51;;;;;;;8.57;3.75;;;11.60;99.90;;;;;;4919085;29;20076;-73
2022/11/08 07:21:17;;;;;;;6.78;2.97;;;11.60;99.90;;;;;;4932967;29;20043;-74
2022/11/08 07:23:42;;;;;;;8.65;3.47;;;11.70;99.90;;;;;;4933756;29;20850;-74
2022/11/08 07:26:09;;;;;;;11.63;3.58;;;11.70;99.90;;;;;;4933051;29;20504;-75
2022/11/08 07:28:35;;;;;;;7.07;3.05;;;11.70;99.90;;;;;;4920112;29;20059;-75
2022/11/08 07:31:03;;;;;;;9.68;3.50;;;11.70;99.90;;;;;;4919463;29;20555;-75
2022/11/08 07:33:29;;;;;;;10.68;4.10;;;11.70;99.90;;;;;;4920100;29;20039;-73
2022/11/08 07:35:55;;;;;;;6.93;3.38;;;11.70;99.90;;;;;;4931045;29;20530;-73
2022/11/08 07:38:22;;;;;;;9.05;3.50;;;11.70;99.90;;;;;;4932471;29;20215;-74
2022/11/08 07:40:48;;;;;;;7.18;3.38;;;11.70;99.90;;;;;;4930733;29;20047;-73
2022/11/08 07:43:13;;;;;;;6.07;3.20;;;11.70;99.90;;;;;;4923472;29;20683;-74
2022/11/08 07:45:40;;;;;;;10.57;3.40;;;11.70;99.90;;;;;;4932508;29;20091;-73
2022/11/08 07:48:08;;;;;;;10.20;3.55;;;11.70;99.90;;;;;;4937263;29;20050;-73
2022/11/08 07:50:33;;;;;;;5.95;3.55;;;11.70;99.90;;;;;;4929209;29;20051;-74
2022/11/08 07:52:59;;;;;;;7.10;3.15;;;11.70;99.90;;;;;;4926303;29;20036;-73
2022/11/08 07:55:25;;;;;;;10.57;3.47;;;11.70;99.90;;;;;;4936750;29;20458;-73
2022/11/08 07:57:55;;;;;;;7.75;3.50;;;11.70;99.90;;;;;;4937869;29;20044;-68
2022/11/08 08:00:21;;;;;;;5.13;3.28;;;11.70;99.90;;;;;;4924316;29;20040;-70
2022/11/08 08:02:46;;;;;;;8.23;3.40;;;11.70;99.90;;;;;;4926046;29;20379;-69
2022/11/08 08:05:12;;;;;;;7.40;3.80;;;11.70;99.90;;;;;;4935746;29;20040;-69
2022/11/08 08:07:38;;;;;;;8.52;3.13;;;11.80;99.90;;;;;;4931420;29;20043;-68
2022/11/08 08:10:04;;;;;;;8.68;3.40;;;11.80;99.90;;;;;;4925651;29;20032;-69
2022/11/08 08:12:29;;;;;;;6.00;3.45;;;11.90;99.90;;;;;;4933937;29;20096;-70
2022/11/08 08:14:55;;;;;;;8.05;3.50;;;12.00;99.90;;;;;;4926803;29;20024;-72
2022/11/08 08:17:20;;;;;;;7.03;3.58;;;12.10;99.90;;;;;;4911162;29;20456;-69
2022/11/08 08:19:46;;;;;;;6.90;3.20;;;12.20;99.90;;;;;;4924226;29;20046;-69
2022/11/08 08:22:12;;;;;;;6.57;3.40;;;12.30;99.90;;;;;;4926472;29;20079;-69
2022/11/08 08:24:37;;;;;;;8.82;3.30;;;12.40;99.90;;;;;;4926181;29;20471;-69
2022/11/08 08:27:03;;;;;;;6.60;3.47;;;12.40;99.90;;;;;;4930250;29;20048;-69
2022/11/08 08:29:28;;;;;;;5.25;3.28;;;12.50;99.90;;;;;;4925967;29;20084;-70
2022/11/08 08:31:54;;;;;;;6.22;2.97;;;12.50;99.90;;;;;;4925139;29;20102;-69
2022/11/08 08:34:20;;;;;;;8.38;3.50;;;12.50;99.90;;;;;;4930094;29;20040;-69
2022/11/08 08:36:46;;;;;;;6.22;3.20;;;12.60;99.90;;;;;;4928486;29;20120;-69
2022/11/08 08:39:11;;;;;;;6.28;3.25;;;12.60;99.90;;;;;;4929182;29;20038;-70
2022/11/08 08:41:37;;;;;;;6.28;3.45;;;12.60;99.90;;;;;;4922393;29;20077;-69
2022/11/08 08:44:02;;;;;;;5.50;3.22;;;12.70;99.90;;;;;;4930189;29;20052;-69
2022/11/08 08:46:28;;;;;;;4.95;3.10;;;12.80;99.90;;;;;;4931086;29;20047;-70
2022/11/08 08:48:54;;;;;;;6.07;2.95;;;12.80;99.90;;;;;;4927094;29;20040;-71
2022/11/08 08:51:19;;;;;;;6.50;2.90;;;12.80;99.90;;;;;;4923189;29;20130;-71
2022/11/08 08:53:45;;;;;;;6.07;3.10;;;12.80;99.90;;;;;;4932044;29;20042;-72
2022/11/08 08:56:11;;;;;;;6.05;3.15;;;12.90;99.90;;;;;;4926903;29;20094;-72
2022/11/08 08:58:36;;;;;;;7.35;2.95;;;12.90;99.90;;;;;;4926964;29;20044;-72
2022/11/08 09:01:04;;;;;;;4.45;2.95;;;12.90;99.90;;;;;;4931216;29;20067;-71
2022/11/08 09:03:32;;;;;;;5.93;2.83;;;13.00;99.90;;;;;;4924648;29;20032;-71
2022/11/08 09:05:58;;;;;;;4.82;3.00;;;13.10;99.90;;;;;;4940238;29;20138;-72
2022/11/08 09:08:24;;;;;;;6.85;3.22;;;13.20;99.90;;;;;;4937272;29;20123;-71
2022/11/08 09:10:54;;;;;;;6.50;3.15;;;13.30;99.90;;;;;;4918128;29;20040;-72
2022/11/08 09:13:20;;;;;;;6.15;2.90;;;13.40;99.90;;;;;;4926798;29;20040;-70
2022/11/08 09:15:46;;;;;;;6.90;3.20;;;13.50;99.90;;;;;;4926357;29;20035;-71
2022/11/08 09:18:11;;;;;;;7.85;2.97;;;13.60;99.90;;;;;;4932725;29;20031;-71
2022/11/08 09:20:38;;;;;;;6.13;3.00;;;13.70;99.90;;;;;;4934741;29;20036;-71
2022/11/08 09:23:04;;;;;;;6.63;2.67;;;13.70;99.90;;;;;;4931114;29;21164;-70
2022/11/08 09:25:30;;;;;;;4.97;2.63;;;13.70;99.90;;;;;;4928945;29;20115;-70
2022/11/08 09:27:55;;;;;;;7.07;2.92;;;13.80;99.90;;;;;;4935350;29;20035;-70
2022/11/08 09:30:21;;;;;;;7.38;2.78;;;13.80;99.90;;;;;;4932458;29;20033;-70
2022/11/08 09:32:47;;;;;;;4.63;2.70;;;13.80;99.90;;;;;;4906560;29;20047;-67
2022/11/08 09:35:12;;;;;;;5.47;2.83;;;13.90;99.90;;;;;;4914605;29;20396;-68
2022/11/08 09:37:38;;;;;;;4.57;2.50;;;13.90;99.90;;;;;;4929342;29;20039;-70
2022/11/08 09:40:04;;;;;;;9.73;2.90;;;14.00;99.90;;;;;;4935144;29;20043;-69
2022/11/08 09:42:45;;;;;;;5.80;2.70;;;14.00;99.90;;;;;;4936300;29;20558;-70
2022/11/08 09:45:23;;;;;;;6.35;2.90;;;14.10;99.90;;;;;;4921567;29;20534;-71
2022/11/08 09:48:15;;;;;;;6.85;2.83;;;14.10;99.90;;;;;;4923115;29;20048;-71
2022/11/08 09:50:43;;;;;;;4.32;2.78;;;14.10;99.90;;;;;;4929452;29;20140;-73
2022/11/08 09:53:25;;;;;;;7.13;2.72;;;14.10;99.90;;;;;;4937995;29;20094;-73
2022/11/08 09:56:20;;;;;;;5.18;2.85;;;14.10;99.90;;;;;;4926981;29;20127;-71
2022/11/08 09:59:01;;;;;;;7.13;3.03;;;14.20;99.90;;;;;;4919575;29;20079;-71
2022/11/08 10:01:30;;;;;;;5.30;2.90;;;14.20;99.90;;;;;;4934139;29;20046;-71
2022/11/08 10:04:04;;;;;;;7.78;2.92;;;14.20;99.90;;;;;;4931477;29;20035;-71
2022/11/08 10:06:41;;;;;;;7.55;2.80;;;14.30;99.90;;;;;;4935091;29;20039;-71
2022/11/08 10:09:16;;;;;;;3.38;2.58;;;14.30;99.90;;;;;;4935446;29;20040;-71
2022/11/08 10:12:06;;;;;;;6.00;2.40;;;14.30;99.90;;;;;;4934213;29;20067;-71
2022/11/08 10:14:54;;;;;;;4.05;2.45;;;14.40;99.90;;;;;;4923261;29;20036;-71
2022/11/08 10:17:42;;;;;;;4.97;2.60;;;14.40;99.90;;;;;;4933844;29;20050;-71
2022/11/08 10:20:45;;;;;;;4.72;2.65;;;14.40;99.90;;;;;;4926148;29;20044;-71
2022/11/08 10:23:29;;;;;;;5.70;2.70;;;14.40;99.90;;;;;;4918788;29;20031;-72
2022/11/08 10:26:04;;;;;;;5.20;2.95;;;14.40;99.90;;;;;;4926777;29;20098;-71
2022/11/08 10:28:35;;;;;;;6.90;2.80;;;14.50;99.90;;;;;;4933892;29;20241;-71
2022/11/08 10:31:02;;;;;;;5.40;2.50;;;14.50;99.90;;;;;;4926885;29;20102;-71
2022/11/08 10:33:36;;;;;;;4.75;2.60;;;14.50;99.90;;;;;;4928768;29;20492;-71
2022/11/08 10:36:39;;;;;;;5.60;2.47;;;14.50;99.90;;;;;;4927447;29;20418;-72
2022/11/08 10:39:08;;;;;;;9.10;2.75;;;14.40;99.90;;;;;;4919083;29;20069;-71
2022/11/08 10:42:01;;;;;;;7.13;2.60;;;14.40;99.90;;;;;;4915082;29;20399;-71
2022/11/08 10:44:27;;;;;;;5.97;2.63;;;14.40;99.90;;;;;;4935230;29;20055;-71
2022/11/08 10:47:00;;;;;;;4.22;2.80;;;14.40;99.90;;;;;;4923635;29;20058;-71
2022/11/08 10:49:36;;;;;;;3.83;2.55;;;14.30;99.90;;;;;;4919776;29;20044;-71
2022/11/08 10:52:11;;;;;;;4.90;2.42;;;14.30;99.90;;;;;;4931979;29;20051;-71
2022/11/08 10:54:54;;;;;;;5.63;2.60;;;14.30;99.90;;;;;;4920314;29;20099;-71
2022/11/08 10:57:43;;;;;;;7.55;2.83;;;14.30;99.90;;;;;;4929441;29;20040;-71
2022/11/08 11:00:22;;;;;;;5.78;2.75;;;14.40;99.90;;;;;;4936899;29;20063;-71
2022/11/08 11:03:10;;;;;;;9.30;3.10;;;14.40;99.90;;;;;;4933305;29;20096;-71
2022/11/08 11:05:40;;;;;;;6.40;2.80;;;14.50;99.90;;;;;;4927302;29;20032;-72
2022/11/08 11:08:09;;;;;;;6.95;2.83;;;14.40;99.90;;;;;;4971217;23;20047;-66
2022/11/08 11:10:53;;;;;;;6.53;2.50;;;14.40;99.90;;;;;;4925267;29;20042;-66
2022/11/08 11:13:23;;;;;;;6.72;2.85;;;14.40;99.90;;;;;;4915665;29;20036;-65
2022/11/08 11:15:59;;;;;;;5.38;2.80;;;14.50;99.90;;;;;;4927655;29;20038;-66
2022/11/08 11:18:29;;;;;;;7.95;2.65;;;14.50;99.90;;;;;;4934175;29;20498;-66
2022/11/08 11:21:10;;;;;;;5.30;2.72;;;14.50;99.90;;;;;;4922360;29;20456;-66
2022/11/08 11:23:38;;;;;;;6.13;2.80;;;14.60;99.90;;;;;;4917042;29;20057;-67
2022/11/08 11:26:06;;;;;;;7.13;3.25;;;14.70;99.90;;;;;;4927819;29;20134;-67
2022/11/08 11:28:34;;;;;;;4.10;2.70;;;14.80;99.90;;;;;;4913640;29;20039;-67
2022/11/08 11:31:15;;;;;;;6.45;3.00;;;14.90;99.90;;;;;;4918271;29;20522;-68
2022/11/08 11:33:45;;;;;;;4.68;2.70;;;14.90;99.90;;;;;;4919695;29;20051;-67
2022/11/08 11:36:17;;;;;;;6.15;2.72;;;14.90;99.90;;;;;;4919021;29;20087;-68
2022/11/08 11:38:58;;;;;;;6.57;2.58;;;15.00;99.90;;;;;;4915679;29;20072;-67
2022/11/08 11:41:51;;;;;;;6.47;3.03;;;15.00;99.90;;;;;;4931858;29;20553;-68
2022/11/08 11:44:38;;;;;;;5.90;2.88;;;15.00;99.90;;;;;;4914965;29;20300;-67
2022/11/08 11:47:14;;;;;;;6.28;2.80;;;15.10;99.90;;;;;;4957655;28;20075;-68
2022/11/08 11:49:43;;;;;;;4.80;2.45;;;15.10;99.90;;;;;;4949031;28;20044;-68
2022/11/08 11:52:16;;;;;;;7.30;3.00;;;15.10;99.90;;;;;;4932016;29;20071;-67
2022/11/08 11:54:45;;;;;;;5.75;2.90;;;15.10;99.90;;;;;;4932217;29;20201;-67
2022/11/08 11:57:38;;;;;;;4.53;2.78;;;15.20;99.90;;;;;;4910171;29;20100;-68
2022/11/08 12:00:08;;;;;;;6.32;2.80;;;15.20;99.90;;;;;;4924498;29;20036;-67
2022/11/08 12:02:40;;;;;;;3.85;2.58;;;15.20;99.90;;;;;;4920712;29;20062;-67
2022/11/08 12:05:32;;;;;;;5.03;2.70;;;15.20;99.90;;;;;;4923681;29;20506;-67
2022/11/08 12:08:13;;;;;;;7.13;2.80;;;15.10;99.90;;;;;;4935006;29;20043;-67
2022/11/08 12:10:48;;;;;;;6.70;2.53;;;15.10;99.90;;;;;;4934053;29;20079;-67
2022/11/08 12:13:22;;;;;;;5.65;2.80;;;15.10;99.90;;;;;;4947438;28;20103;-67
2022/11/08 12:15:59;;;;;;;6.22;2.70;;;15.20;99.90;;;;;;4931780;29;20067;-67
2022/11/08 12:18:37;;;;;;;6.00;2.97;;;15.20;99.90;;;;;;4919345;29;20566;-67
2022/11/08 12:21:13;;;;;;;6.05;2.58;;;15.20;99.90;;;;;;4927175;29;20091;-67
2022/11/08 12:23:57;;;;;;;5.70;2.42;;;15.20;99.90;;;;;;4914215;29;20613;-67
2022/11/08 12:26:39;;;;;;;5.35;2.47;;;15.10;99.90;;;;;;4936706;29;20039;-67
2022/11/08 12:29:33;;;;;;;7.10;2.80;;;15.10;99.90;;;;;;4924969;29;20039;-67
2022/11/08 12:32:06;;;;;;;6.65;2.65;;;15.10;99.90;;;;;;4924840;29;20560;-67
2022/11/08 12:34:34;;;;;;;4.93;2.60;;;15.10;99.90;;;;;;4905398;29;20404;-67
2022/11/08 12:37:03;;;;;;;6.85;2.75;;;15.00;99.90;;;;;;4929045;29;20040;-68
2022/11/08 12:39:33;;;;;;;5.03;2.90;;;15.00;99.90;;;;;;4929472;29;20420;-67
2022/11/08 12:42:22;;;;;;;6.25;3.10;;;14.90;99.90;;;;;;4935947;29;20410;-67
2022/11/08 12:45:13;;;;;;;5.95;2.97;;;14.90;99.90;;;;;;4915941;29;20077;-67
2022/11/08 12:47:54;;;;;;;5.20;2.97;;;14.90;99.90;;;;;;4925902;29;20055;-67
2022/11/08 12:50:26;;;;;;;6.10;2.67;;;14.90;99.90;;;;;;4908590;29;20052;-69
2022/11/08 12:53:13;;;;;;;6.15;2.85;;;14.90;99.90;;;;;;4969293;28;20050;-68
2022/11/08 12:55:42;;;;;;;5.97;2.67;;;15.00;99.90;;;;;;4934659;29;20046;-69
2022/11/08 12:58:27;;;;;;;5.75;2.50;;;15.20;99.90;;;;;;4931883;29;20111;-69
2022/11/08 13:00:57;;;;;;;4.35;2.50;;;15.30;99.90;;;;;;4898844;29;20049;-69
2022/11/08 13:03:41;;;;;;;4.30;2.50;;;15.40;99.90;;;;;;4935496;29;20118;-68
2022/11/08 13:06:25;;;;;;;15.60;2.80;;;15.50;99.90;;;;;;4915525;29;20052;-68
2022/11/08 13:09:09;;;;;;;5.30;2.70;;;15.50;99.90;;;;;;4925708;29;20458;-68
2022/11/08 13:11:44;;;;;;;4.50;2.53;;;15.50;99.90;;;;;;4921746;29;20099;-68
2022/11/08 13:14:15;;;;;;;7.30;2.78;;;15.40;99.90;;;;;;4935820;29;20371;-68
2022/11/08 13:16:42;;;;;;;;;;;15.30;99.90;;;;;;4922134;29;20054;-69
2022/11/08 13:19:27;;;;;;;5.53;2.58;;;15.30;99.90;;;;;;4924512;29;19919;-68